sensor_id;sensor_type;location;lat;lon;timestamp;temperature;humidity
11320;DHT22;5715;48.234;14.320;2024-01-30T00:00:10;-2.30;99.90
11320;DHT22;5715;48.234;14.320;2024-01-30T00:03:04;-2.20;99.90
11320;DHT22;5715;48.234;14.320;2024-01-30T00:05:55;-2.10;99.90
11320;DHT22;5715;48.234;14.320;2024-01-30T00:09:04;-2.10;99.90
11320;DHT22;5715;48.234;14.320;2024-01-30T00:12:12;-2.20;99.90
11320;DHT22;5715;48.234;14.320;2024-01-30T00:15:00;-2.20;99.90
11320;DHT22;5715;48.234;14.320;2024-01-30T00:17:47;-2.20;99.90
11320;DHT22;5715;48.234;14.320;2024-01-30T00:20:36;-2.10;99.90
11320;DHT22;5715;48.234;14.320;2024-01-30T00:23:23;-2.00;99.90
11320;DHT22;5715;48.234;14.320;2024-01-30T00:26:11;-2.00;99.90
11320;DHT22;5715;48.234;14.320;2024-01-30T00:28:59;-2.00;99.90
11320;DHT22;5715;48.234;14.320;2024-01-30T00:31:47;-2.10;99.90
11320;DHT22;5715;48.234;14.320;2024-01-30T00:34:35;-2.10;99.90
11320;DHT22;5715;48.234;14.320;2024-01-30T00:37:23;-2.20;99.90
11320;DHT22;5715;48.234;14.320;2024-01-30T00:40:11;-2.20;99.90
11320;DHT22;5715;48.234;14.320;2024-01-30T00:43:03;-2.20;99.90
11320;DHT22;5715;48.234;14.320;2024-01-30T00:45:51;-2.20;99.90
11320;DHT22;5715;48.234;14.320;2024-01-30T00:48:41;-2.30;99.90
11320;DHT22;5715;48.234;14.320;2024-01-30T00:51:29;-2.30;99.90
11320;DHT22;5715;48.234;14.320;2024-01-30T00:54:17;-2.30;99.90
11320;DHT22;5715;48.234;14.320;2024-01-30T00:57:05;-2.30;99.90
11320;DHT22;5715;48.234;14.320;2024-01-30T00:59:52;-2.30;99.90
11320;DHT22;5715;48.234;14.320;2024-01-30T01:02:40;-2.40;99.90
11320;DHT22;5715;48.234;14.320;2024-01-30T01:05:28;-2.30;99.90
11320;DHT22;5715;48.234;14.320;2024-01-30T01:08:16;-2.20;99.90
11320;DHT22;5715;48.234;14.320;2024-01-30T01:11:05;-2.20;99.90
11320;DHT22;5715;48.234;14.320;2024-01-30T01:13:52;-2.20;99.90
11320;DHT22;5715;48.234;14.320;2024-01-30T01:16:40;-2.30;99.90
11320;DHT22;5715;48.234;14.320;2024-01-30T01:19:28;-2.40;99.90
11320;DHT22;5715;48.234;14.320;2024-01-30T01:22:16;-2.40;99.90
11320;DHT22;5715;48.234;14.320;2024-01-30T01:25:06;-2.40;99.90
11320;DHT22;5715;48.234;14.320;2024-01-30T01:27:55;-2.40;99.90
11320;DHT22;5715;48.234;14.320;2024-01-30T01:30:43;-2.50;99.90
11320;DHT22;5715;48.234;14.320;2024-01-30T01:33:32;-2.50;99.90
11320;DHT22;5715;48.234;14.320;2024-01-30T01:36:20;-2.50;99.90
11320;DHT22;5715;48.234;14.320;2024-01-30T01:39:08;-2.50;99.90
11320;DHT22;5715;48.234;14.320;2024-01-30T01:41:56;-2.50;99.90
11320;DHT22;5715;48.234;14.320;2024-01-30T01:44:43;-2.50;99.90
11320;DHT22;5715;48.234;14.320;2024-01-30T01:47:31;-2.50;99.90
11320;DHT22;5715;48.234;14.320;2024-01-30T01:50:20;-2.60;99.90
11320;DHT22;5715;48.234;14.320;2024-01-30T01:53:09;-2.60;99.90
11320;DHT22;5715;48.234;14.320;2024-01-30T01:55:58;-2.70;99.90
11320;DHT22;5715;48.234;14.320;2024-01-30T01:58:46;-2.70;99.90
11320;DHT22;5715;48.234;14.320;2024-01-30T02:01:37;-2.70;99.90
11320;DHT22;5715;48.234;14.320;2024-01-30T02:04:26;-2.70;99.90
11320;DHT22;5715;48.234;14.320;2024-01-30T02:07:13;-2.70;99.90
11320;DHT22;5715;48.234;14.320;2024-01-30T02:10:01;-2.70;99.90
11320;DHT22;5715;48.234;14.320;2024-01-30T02:12:51;-2.70;99.90
11320;DHT22;5715;48.234;14.320;2024-01-30T02:15:38;-2.70;99.90
11320;DHT22;5715;48.234;14.320;2024-01-30T02:18:26;-2.70;99.90
11320;DHT22;5715;48.234;14.320;2024-01-30T02:21:16;-2.70;99.90
11320;DHT22;5715;48.234;14.320;2024-01-30T02:24:04;-2.80;99.90
11320;DHT22;5715;48.234;14.320;2024-01-30T02:26:53;-2.80;99.90
11320;DHT22;5715;48.234;14.320;2024-01-30T02:29:40;-2.80;99.90
11320;DHT22;5715;48.234;14.320;2024-01-30T02:32:28;-2.80;99.90
11320;DHT22;5715;48.234;14.320;2024-01-30T02:35:16;-2.80;99.90
11320;DHT22;5715;48.234;14.320;2024-01-30T02:38:04;-2.80;99.90
11320;DHT22;5715;48.234;14.320;2024-01-30T02:40:52;-2.80;99.90
11320;DHT22;5715;48.234;14.320;2024-01-30T02:43:40;-2.80;99.90
11320;DHT22;5715;48.234;14.320;2024-01-30T02:46:28;-2.80;99.90
11320;DHT22;5715;48.234;14.320;2024-01-30T02:49:16;-2.90;99.90
11320;DHT22;5715;48.234;14.320;2024-01-30T02:52:04;-2.90;99.90
11320;DHT22;5715;48.234;14.320;2024-01-30T02:54:52;-2.90;99.90
11320;DHT22;5715;48.234;14.320;2024-01-30T02:57:40;-2.90;99.90
11320;DHT22;5715;48.234;14.320;2024-01-30T03:00:27;-2.90;99.90
11320;DHT22;5715;48.234;14.320;2024-01-30T03:03:15;-3.00;99.90
11320;DHT22;5715;48.234;14.320;2024-01-30T03:06:03;-2.90;99.90
11320;DHT22;5715;48.234;14.320;2024-01-30T03:08:51;-3.00;99.90
11320;DHT22;5715;48.234;14.320;2024-01-30T03:11:38;-3.00;99.90
11320;DHT22;5715;48.234;14.320;2024-01-30T03:14:26;-3.00;99.90
11320;DHT22;5715;48.234;14.320;2024-01-30T03:17:14;-3.00;99.90
11320;DHT22;5715;48.234;14.320;2024-01-30T03:20:02;-3.00;99.90
11320;DHT22;5715;48.234;14.320;2024-01-30T03:22:51;-3.00;99.90
11320;DHT22;5715;48.234;14.320;2024-01-30T03:25:38;-2.90;99.90
11320;DHT22;5715;48.234;14.320;2024-01-30T03:28:26;-3.00;99.90
11320;DHT22;5715;48.234;14.320;2024-01-30T03:31:15;-3.00;99.90
11320;DHT22;5715;48.234;14.320;2024-01-30T03:34:03;-3.00;99.90
11320;DHT22;5715;48.234;14.320;2024-01-30T03:36:51;-3.00;99.90
11320;DHT22;5715;48.234;14.320;2024-01-30T03:39:38;-3.00;99.90
11320;DHT22;5715;48.234;14.320;2024-01-30T03:42:26;-3.00;99.90
11320;DHT22;5715;48.234;14.320;2024-01-30T03:45:14;-3.10;99.90
11320;DHT22;5715;48.234;14.320;2024-01-30T03:48:01;-3.00;99.90
11320;DHT22;5715;48.234;14.320;2024-01-30T03:50:49;-3.00;99.90
11320;DHT22;5715;48.234;14.320;2024-01-30T03:53:37;-3.10;99.90
11320;DHT22;5715;48.234;14.320;2024-01-30T03:56:24;-3.10;99.90
11320;DHT22;5715;48.234;14.320;2024-01-30T03:59:13;-3.10;99.90
11320;DHT22;5715;48.234;14.320;2024-01-30T04:02:01;-3.10;99.90
11320;DHT22;5715;48.234;14.320;2024-01-30T04:04:49;-3.00;99.90
11320;DHT22;5715;48.234;14.320;2024-01-30T04:07:36;-3.00;99.90
11320;DHT22;5715;48.234;14.320;2024-01-30T04:10:24;-3.00;99.90
11320;DHT22;5715;48.234;14.320;2024-01-30T04:13:12;-3.00;99.90
11320;DHT22;5715;48.234;14.320;2024-01-30T04:16:00;-3.00;99.90
11320;DHT22;5715;48.234;14.320;2024-01-30T04:18:52;-3.00;99.90
11320;DHT22;5715;48.234;14.320;2024-01-30T04:21:40;-3.00;99.90
11320;DHT22;5715;48.234;14.320;2024-01-30T04:24:28;-3.00;99.90
11320;DHT22;5715;48.234;14.320;2024-01-30T04:27:15;-3.00;99.90
11320;DHT22;5715;48.234;14.320;2024-01-30T04:30:03;-3.00;99.90
11320;DHT22;5715;48.234;14.320;2024-01-30T04:32:51;-3.00;99.90
11320;DHT22;5715;48.234;14.320;2024-01-30T04:35:39;-3.00;99.90
11320;DHT22;5715;48.234;14.320;2024-01-30T04:38:26;-3.00;99.90
11320;DHT22;5715;48.234;14.320;2024-01-30T04:41:14;-3.00;99.90
11320;DHT22;5715;48.234;14.320;2024-01-30T04:44:02;-3.10;99.90
11320;DHT22;5715;48.234;14.320;2024-01-30T04:46:50;-3.00;99.90
11320;DHT22;5715;48.234;14.320;2024-01-30T04:49:40;-3.10;99.90
11320;DHT22;5715;48.234;14.320;2024-01-30T04:52:28;-3.00;99.90
11320;DHT22;5715;48.234;14.320;2024-01-30T04:55:16;-3.10;99.90
11320;DHT22;5715;48.234;14.320;2024-01-30T04:58:07;-3.10;99.90
11320;DHT22;5715;48.234;14.320;2024-01-30T05:00:55;-3.20;99.90
11320;DHT22;5715;48.234;14.320;2024-01-30T05:03:44;-3.10;99.90
11320;DHT22;5715;48.234;14.320;2024-01-30T05:06:32;-3.10;99.90
11320;DHT22;5715;48.234;14.320;2024-01-30T05:09:20;-3.20;99.90
11320;DHT22;5715;48.234;14.320;2024-01-30T05:12:08;-3.20;99.90
11320;DHT22;5715;48.234;14.320;2024-01-30T05:14:56;-3.20;99.90
11320;DHT22;5715;48.234;14.320;2024-01-30T05:17:44;-3.20;99.90
11320;DHT22;5715;48.234;14.320;2024-01-30T05:20:31;-3.20;99.90
11320;DHT22;5715;48.234;14.320;2024-01-30T05:23:19;-3.30;99.90
11320;DHT22;5715;48.234;14.320;2024-01-30T05:26:07;-3.30;99.90
11320;DHT22;5715;48.234;14.320;2024-01-30T05:28:55;-3.30;99.90
11320;DHT22;5715;48.234;14.320;2024-01-30T05:31:43;-3.30;99.90
11320;DHT22;5715;48.234;14.320;2024-01-30T05:34:30;-3.30;99.90
11320;DHT22;5715;48.234;14.320;2024-01-30T05:37:18;-3.30;99.90
11320;DHT22;5715;48.234;14.320;2024-01-30T05:40:07;-3.30;99.90
11320;DHT22;5715;48.234;14.320;2024-01-30T05:42:55;-3.30;99.90
11320;DHT22;5715;48.234;14.320;2024-01-30T05:45:43;-3.30;99.90
11320;DHT22;5715;48.234;14.320;2024-01-30T05:48:31;-3.30;99.90
11320;DHT22;5715;48.234;14.320;2024-01-30T05:51:19;-3.30;99.90
11320;DHT22;5715;48.234;14.320;2024-01-30T05:54:06;-3.30;99.90
11320;DHT22;5715;48.234;14.320;2024-01-30T05:56:54;-3.40;99.90
11320;DHT22;5715;48.234;14.320;2024-01-30T05:59:42;-3.40;99.90
11320;DHT22;5715;48.234;14.320;2024-01-30T06:02:31;-3.40;99.90
11320;DHT22;5715;48.234;14.320;2024-01-30T06:05:19;-3.40;99.90
11320;DHT22;5715;48.234;14.320;2024-01-30T06:08:07;-3.50;99.90
11320;DHT22;5715;48.234;14.320;2024-01-30T06:10:54;-3.50;99.90
11320;DHT22;5715;48.234;14.320;2024-01-30T06:13:42;-3.50;99.90
11320;DHT22;5715;48.234;14.320;2024-01-30T06:16:30;-3.60;99.90
11320;DHT22;5715;48.234;14.320;2024-01-30T06:19:17;-3.60;99.90
11320;DHT22;5715;48.234;14.320;2024-01-30T06:22:05;-3.60;99.90
11320;DHT22;5715;48.234;14.320;2024-01-30T06:24:53;-3.60;99.90
11320;DHT22;5715;48.234;14.320;2024-01-30T06:27:41;-3.60;99.90
11320;DHT22;5715;48.234;14.320;2024-01-30T06:30:29;-3.60;99.90
11320;DHT22;5715;48.234;14.320;2024-01-30T06:33:16;-3.60;99.90
11320;DHT22;5715;48.234;14.320;2024-01-30T06:36:04;-3.60;99.90
11320;DHT22;5715;48.234;14.320;2024-01-30T06:38:52;-3.60;99.90
11320;DHT22;5715;48.234;14.320;2024-01-30T06:41:39;-3.60;99.90
11320;DHT22;5715;48.234;14.320;2024-01-30T06:44:27;-3.60;99.90
11320;DHT22;5715;48.234;14.320;2024-01-30T06:47:19;-3.50;99.90
11320;DHT22;5715;48.234;14.320;2024-01-30T06:50:08;-3.40;99.90
11320;DHT22;5715;48.234;14.320;2024-01-30T06:52:56;-3.30;99.90
11320;DHT22;5715;48.234;14.320;2024-01-30T06:55:43;-3.30;99.90
11320;DHT22;5715;48.234;14.320;2024-01-30T06:58:31;-3.20;99.90
11320;DHT22;5715;48.234;14.320;2024-01-30T07:01:20;-3.10;99.90
11320;DHT22;5715;48.234;14.320;2024-01-30T07:04:08;-2.90;99.90
11320;DHT22;5715;48.234;14.320;2024-01-30T07:06:56;-2.80;99.90
11320;DHT22;5715;48.234;14.320;2024-01-30T07:09:44;-2.40;99.90
11320;DHT22;5715;48.234;14.320;2024-01-30T07:12:33;-2.00;99.90
11320;DHT22;5715;48.234;14.320;2024-01-30T07:15:20;-1.80;99.90
11320;DHT22;5715;48.234;14.320;2024-01-30T07:18:08;-1.60;99.90
11320;DHT22;5715;48.234;14.320;2024-01-30T07:20:57;-1.50;99.90
11320;DHT22;5715;48.234;14.320;2024-01-30T07:23:45;-1.30;99.90
11320;DHT22;5715;48.234;14.320;2024-01-30T07:26:32;-1.10;99.90
11320;DHT22;5715;48.234;14.320;2024-01-30T07:29:20;-1.10;99.90
11320;DHT22;5715;48.234;14.320;2024-01-30T07:32:09;-0.90;99.90
11320;DHT22;5715;48.234;14.320;2024-01-30T07:34:57;-0.80;99.90
11320;DHT22;5715;48.234;14.320;2024-01-30T07:37:54;-0.70;99.90
11320;DHT22;5715;48.234;14.320;2024-01-30T07:40:42;-0.70;99.90
11320;DHT22;5715;48.234;14.320;2024-01-30T07:43:30;-0.60;99.90
11320;DHT22;5715;48.234;14.320;2024-01-30T07:46:17;-0.60;99.90
11320;DHT22;5715;48.234;14.320;2024-01-30T07:49:05;-0.60;99.90
11320;DHT22;5715;48.234;14.320;2024-01-30T07:51:53;-0.50;99.90
11320;DHT22;5715;48.234;14.320;2024-01-30T07:58:37;-0.50;99.90
11320;DHT22;5715;48.234;14.320;2024-01-30T08:01:25;-0.40;99.90
11320;DHT22;5715;48.234;14.320;2024-01-30T08:04:13;-0.40;99.90
11320;DHT22;5715;48.234;14.320;2024-01-30T08:07:01;-0.30;99.90
11320;DHT22;5715;48.234;14.320;2024-01-30T08:09:49;-0.20;99.90
11320;DHT22;5715;48.234;14.320;2024-01-30T08:12:36;-0.20;99.90
11320;DHT22;5715;48.234;14.320;2024-01-30T08:15:24;-0.20;99.90
11320;DHT22;5715;48.234;14.320;2024-01-30T08:18:12;-0.10;99.90
11320;DHT22;5715;48.234;14.320;2024-01-30T08:21:00;-0.20;99.90
11320;DHT22;5715;48.234;14.320;2024-01-30T08:23:48;-0.10;99.90
11320;DHT22;5715;48.234;14.320;2024-01-30T08:26:35;-0.20;99.90
11320;DHT22;5715;48.234;14.320;2024-01-30T08:29:24;-0.20;99.90
11320;DHT22;5715;48.234;14.320;2024-01-30T08:32:12;-0.20;99.90
11320;DHT22;5715;48.234;14.320;2024-01-30T08:35:00;-0.10;99.90
11320;DHT22;5715;48.234;14.320;2024-01-30T08:37:51;-0.10;99.90
11320;DHT22;5715;48.234;14.320;2024-01-30T08:40:38;-0.10;99.90
11320;DHT22;5715;48.234;14.320;2024-01-30T08:43:26;-0.10;99.90
11320;DHT22;5715;48.234;14.320;2024-01-30T08:46:17;-0.10;99.90
11320;DHT22;5715;48.234;14.320;2024-01-30T08:49:06;-0.10;99.90
11320;DHT22;5715;48.234;14.320;2024-01-30T08:51:54;-0.10;99.90
11320;DHT22;5715;48.234;14.320;2024-01-30T08:54:41;-0.10;99.90
11320;DHT22;5715;48.234;14.320;2024-01-30T08:57:29;-0.10;99.90
11320;DHT22;5715;48.234;14.320;2024-01-30T09:00:17;-0.10;99.90
11320;DHT22;5715;48.234;14.320;2024-01-30T09:03:05;-0.20;99.90
11320;DHT22;5715;48.234;14.320;2024-01-30T09:05:53;-0.20;99.90
11320;DHT22;5715;48.234;14.320;2024-01-30T09:08:40;-0.20;99.90
11320;DHT22;5715;48.234;14.320;2024-01-30T09:11:28;-0.20;99.90
11320;DHT22;5715;48.234;14.320;2024-01-30T09:14:16;-0.10;99.90
11320;DHT22;5715;48.234;14.320;2024-01-30T09:17:04;-0.10;99.90
11320;DHT22;5715;48.234;14.320;2024-01-30T09:19:52;-0.10;99.90
11320;DHT22;5715;48.234;14.320;2024-01-30T09:22:40;0.00;99.90
11320;DHT22;5715;48.234;14.320;2024-01-30T09:25:27;0.00;99.90
11320;DHT22;5715;48.234;14.320;2024-01-30T09:28:15;0.10;99.90
11320;DHT22;5715;48.234;14.320;2024-01-30T09:31:09;0.10;99.90
11320;DHT22;5715;48.234;14.320;2024-01-30T09:33:57;0.10;99.90
11320;DHT22;5715;48.234;14.320;2024-01-30T09:36:45;0.10;99.90
11320;DHT22;5715;48.234;14.320;2024-01-30T09:39:33;0.20;99.90
11320;DHT22;5715;48.234;14.320;2024-01-30T09:42:35;0.20;99.90
11320;DHT22;5715;48.234;14.320;2024-01-30T09:45:25;0.20;99.90
11320;DHT22;5715;48.234;14.320;2024-01-30T09:48:13;0.20;99.90
11320;DHT22;5715;48.234;14.320;2024-01-30T09:51:03;0.20;99.90
11320;DHT22;5715;48.234;14.320;2024-01-30T09:53:51;0.30;99.90
11320;DHT22;5715;48.234;14.320;2024-01-30T09:56:40;0.30;99.90
11320;DHT22;5715;48.234;14.320;2024-01-30T09:59:28;0.40;99.90
11320;DHT22;5715;48.234;14.320;2024-01-30T10:02:15;0.40;99.90
11320;DHT22;5715;48.234;14.320;2024-01-30T10:05:04;0.40;99.90
11320;DHT22;5715;48.234;14.320;2024-01-30T10:07:53;0.50;99.90
11320;DHT22;5715;48.234;14.320;2024-01-30T10:10:47;0.50;99.90
11320;DHT22;5715;48.234;14.320;2024-01-30T10:13:35;0.50;99.90
11320;DHT22;5715;48.234;14.320;2024-01-30T10:16:23;0.40;99.90
11320;DHT22;5715;48.234;14.320;2024-01-30T10:19:11;0.50;99.90
11320;DHT22;5715;48.234;14.320;2024-01-30T10:22:05;0.50;99.90
11320;DHT22;5715;48.234;14.320;2024-01-30T10:24:56;0.50;99.90
11320;DHT22;5715;48.234;14.320;2024-01-30T10:27:45;0.60;99.90
11320;DHT22;5715;48.234;14.320;2024-01-30T10:30:33;0.50;99.90
11320;DHT22;5715;48.234;14.320;2024-01-30T10:33:21;0.50;99.90
11320;DHT22;5715;48.234;14.320;2024-01-30T10:36:09;0.50;99.90
11320;DHT22;5715;48.234;14.320;2024-01-30T10:38:59;0.50;99.90
11320;DHT22;5715;48.234;14.320;2024-01-30T10:41:48;0.60;99.90
11320;DHT22;5715;48.234;14.320;2024-01-30T10:47:55;0.60;99.90
11320;DHT22;5715;48.234;14.320;2024-01-30T10:50:45;0.60;99.90
11320;DHT22;5715;48.234;14.320;2024-01-30T10:53:46;0.70;99.90
11320;DHT22;5715;48.234;14.320;2024-01-30T10:56:36;0.50;99.90
11320;DHT22;5715;48.234;14.320;2024-01-30T10:59:26;0.50;99.90
11320;DHT22;5715;48.234;14.320;2024-01-30T11:02:15;0.60;99.90
11320;DHT22;5715;48.234;14.320;2024-01-30T11:05:04;0.70;99.90
11320;DHT22;5715;48.234;14.320;2024-01-30T11:07:53;0.80;99.90
11320;DHT22;5715;48.234;14.320;2024-01-30T11:10:47;0.90;99.90
11320;DHT22;5715;48.234;14.320;2024-01-30T11:13:36;0.90;99.90
11320;DHT22;5715;48.234;14.320;2024-01-30T11:16:31;1.00;99.90
11320;DHT22;5715;48.234;14.320;2024-01-30T11:19:26;1.00;99.90
11320;DHT22;5715;48.234;14.320;2024-01-30T11:22:15;1.10;99.90
11320;DHT22;5715;48.234;14.320;2024-01-30T11:25:03;1.20;99.90
11320;DHT22;5715;48.234;14.320;2024-01-30T11:27:55;1.20;99.90
11320;DHT22;5715;48.234;14.320;2024-01-30T11:30:43;1.20;99.90
11320;DHT22;5715;48.234;14.320;2024-01-30T11:33:35;1.20;99.90
11320;DHT22;5715;48.234;14.320;2024-01-30T11:36:26;1.20;99.90
11320;DHT22;5715;48.234;14.320;2024-01-30T11:39:16;1.20;99.90
11320;DHT22;5715;48.234;14.320;2024-01-30T11:42:06;1.20;99.90
11320;DHT22;5715;48.234;14.320;2024-01-30T11:44:56;1.30;99.90
11320;DHT22;5715;48.234;14.320;2024-01-30T11:47:44;1.40;99.90
11320;DHT22;5715;48.234;14.320;2024-01-30T11:50:35;1.30;99.90
11320;DHT22;5715;48.234;14.320;2024-01-30T11:53:25;1.20;99.90
11320;DHT22;5715;48.234;14.320;2024-01-30T11:56:14;1.00;99.90
11320;DHT22;5715;48.234;14.320;2024-01-30T11:59:02;1.00;99.90
11320;DHT22;5715;48.234;14.320;2024-01-30T12:01:52;1.10;99.90
11320;DHT22;5715;48.234;14.320;2024-01-30T12:04:39;1.20;99.90
11320;DHT22;5715;48.234;14.320;2024-01-30T12:07:27;1.00;99.90
11320;DHT22;5715;48.234;14.320;2024-01-30T12:10:15;1.10;99.90
11320;DHT22;5715;48.234;14.320;2024-01-30T12:13:05;1.30;99.90
11320;DHT22;5715;48.234;14.320;2024-01-30T12:15:53;1.30;99.90
11320;DHT22;5715;48.234;14.320;2024-01-30T12:18:40;1.30;99.90
11320;DHT22;5715;48.234;14.320;2024-01-30T12:21:29;1.30;99.90
11320;DHT22;5715;48.234;14.320;2024-01-30T12:24:17;1.40;99.90
11320;DHT22;5715;48.234;14.320;2024-01-30T12:27:08;1.40;99.90
11320;DHT22;5715;48.234;14.320;2024-01-30T12:29:57;1.40;99.90
11320;DHT22;5715;48.234;14.320;2024-01-30T12:32:50;1.50;99.90
11320;DHT22;5715;48.234;14.320;2024-01-30T12:35:39;1.50;99.90
11320;DHT22;5715;48.234;14.320;2024-01-30T12:38:38;1.50;99.90
11320;DHT22;5715;48.234;14.320;2024-01-30T12:41:27;1.60;99.90
11320;DHT22;5715;48.234;14.320;2024-01-30T12:44:16;1.60;99.90
11320;DHT22;5715;48.234;14.320;2024-01-30T12:47:04;1.70;99.90
11320;DHT22;5715;48.234;14.320;2024-01-30T12:49:52;1.70;99.90
11320;DHT22;5715;48.234;14.320;2024-01-30T12:52:43;1.70;99.90
11320;DHT22;5715;48.234;14.320;2024-01-30T12:55:35;1.60;99.90
11320;DHT22;5715;48.234;14.320;2024-01-30T12:58:23;1.50;99.90
11320;DHT22;5715;48.234;14.320;2024-01-30T13:01:11;1.50;99.90
11320;DHT22;5715;48.234;14.320;2024-01-30T13:03:59;1.50;99.90
11320;DHT22;5715;48.234;14.320;2024-01-30T13:06:47;1.60;99.90
11320;DHT22;5715;48.234;14.320;2024-01-30T13:09:35;1.60;99.90
11320;DHT22;5715;48.234;14.320;2024-01-30T13:12:22;1.70;99.90
11320;DHT22;5715;48.234;14.320;2024-01-30T13:15:10;1.70;99.90
11320;DHT22;5715;48.234;14.320;2024-01-30T13:17:58;1.70;99.90
11320;DHT22;5715;48.234;14.320;2024-01-30T13:20:46;1.80;99.90
11320;DHT22;5715;48.234;14.320;2024-01-30T13:23:34;1.80;99.90
11320;DHT22;5715;48.234;14.320;2024-01-30T13:26:21;1.80;99.90
11320;DHT22;5715;48.234;14.320;2024-01-30T13:29:09;1.80;99.90
11320;DHT22;5715;48.234;14.320;2024-01-30T13:31:57;1.90;99.90
11320;DHT22;5715;48.234;14.320;2024-01-30T13:34:45;1.90;99.90
11320;DHT22;5715;48.234;14.320;2024-01-30T13:37:33;1.80;99.90
11320;DHT22;5715;48.234;14.320;2024-01-30T13:40:21;1.80;99.90
11320;DHT22;5715;48.234;14.320;2024-01-30T13:43:09;1.80;99.90
11320;DHT22;5715;48.234;14.320;2024-01-30T13:45:57;1.80;99.90
11320;DHT22;5715;48.234;14.320;2024-01-30T13:48:45;1.80;99.90
11320;DHT22;5715;48.234;14.320;2024-01-30T13:51:33;1.70;99.90
11320;DHT22;5715;48.234;14.320;2024-01-30T13:54:21;1.60;99.90
11320;DHT22;5715;48.234;14.320;2024-01-30T13:57:08;1.50;99.90
11320;DHT22;5715;48.234;14.320;2024-01-30T13:59:56;1.40;99.90
11320;DHT22;5715;48.234;14.320;2024-01-30T14:02:44;1.30;99.90
11320;DHT22;5715;48.234;14.320;2024-01-30T14:05:32;1.30;99.90
11320;DHT22;5715;48.234;14.320;2024-01-30T14:08:20;1.20;99.90
11320;DHT22;5715;48.234;14.320;2024-01-30T14:11:11;1.20;99.90
11320;DHT22;5715;48.234;14.320;2024-01-30T14:13:59;1.10;99.90
11320;DHT22;5715;48.234;14.320;2024-01-30T14:16:46;1.00;99.90
11320;DHT22;5715;48.234;14.320;2024-01-30T14:19:35;1.00;99.90
11320;DHT22;5715;48.234;14.320;2024-01-30T14:22:23;1.10;99.90
11320;DHT22;5715;48.234;14.320;2024-01-30T14:25:11;1.10;99.90
11320;DHT22;5715;48.234;14.320;2024-01-30T14:27:59;1.10;99.90
11320;DHT22;5715;48.234;14.320;2024-01-30T14:30:47;1.10;99.90
11320;DHT22;5715;48.234;14.320;2024-01-30T14:33:35;1.10;99.90
11320;DHT22;5715;48.234;14.320;2024-01-30T14:36:24;1.00;99.90
11320;DHT22;5715;48.234;14.320;2024-01-30T14:39:15;1.00;99.90
11320;DHT22;5715;48.234;14.320;2024-01-30T14:42:03;1.00;99.90
11320;DHT22;5715;48.234;14.320;2024-01-30T14:44:51;1.00;99.90
11320;DHT22;5715;48.234;14.320;2024-01-30T14:47:39;0.90;99.90
11320;DHT22;5715;48.234;14.320;2024-01-30T14:50:28;1.00;99.90
11320;DHT22;5715;48.234;14.320;2024-01-30T14:53:16;1.00;99.90
11320;DHT22;5715;48.234;14.320;2024-01-30T14:56:04;1.10;99.90
11320;DHT22;5715;48.234;14.320;2024-01-30T14:58:53;1.10;99.90
11320;DHT22;5715;48.234;14.320;2024-01-30T15:01:41;1.10;99.90
11320;DHT22;5715;48.234;14.320;2024-01-30T15:04:28;1.10;99.90
11320;DHT22;5715;48.234;14.320;2024-01-30T15:07:16;1.10;99.90
11320;DHT22;5715;48.234;14.320;2024-01-30T15:10:18;1.10;99.90
11320;DHT22;5715;48.234;14.320;2024-01-30T15:13:06;1.00;99.90
11320;DHT22;5715;48.234;14.320;2024-01-30T15:15:54;1.00;99.90
11320;DHT22;5715;48.234;14.320;2024-01-30T15:18:42;1.00;99.90
11320;DHT22;5715;48.234;14.320;2024-01-30T15:21:30;0.90;99.90
11320;DHT22;5715;48.234;14.320;2024-01-30T15:24:18;1.00;99.90
11320;DHT22;5715;48.234;14.320;2024-01-30T15:27:07;0.80;99.90
11320;DHT22;5715;48.234;14.320;2024-01-30T15:29:55;0.70;99.90
11320;DHT22;5715;48.234;14.320;2024-01-30T15:32:43;0.60;99.90
11320;DHT22;5715;48.234;14.320;2024-01-30T15:35:31;0.70;99.90
11320;DHT22;5715;48.234;14.320;2024-01-30T15:38:19;0.60;99.90
11320;DHT22;5715;48.234;14.320;2024-01-30T15:41:08;0.60;99.90
11320;DHT22;5715;48.234;14.320;2024-01-30T15:43:56;0.60;99.90
11320;DHT22;5715;48.234;14.320;2024-01-30T15:46:44;0.60;99.90
11320;DHT22;5715;48.234;14.320;2024-01-30T15:49:31;0.60;99.90
11320;DHT22;5715;48.234;14.320;2024-01-30T15:52:19;0.60;99.90
11320;DHT22;5715;48.234;14.320;2024-01-30T15:55:07;0.60;99.90
11320;DHT22;5715;48.234;14.320;2024-01-30T15:57:55;0.60;99.90
11320;DHT22;5715;48.234;14.320;2024-01-30T16:00:43;0.50;99.90
11320;DHT22;5715;48.234;14.320;2024-01-30T16:03:30;0.50;99.90
11320;DHT22;5715;48.234;14.320;2024-01-30T16:06:18;0.40;99.90
11320;DHT22;5715;48.234;14.320;2024-01-30T16:09:06;0.40;99.90
11320;DHT22;5715;48.234;14.320;2024-01-30T16:11:53;0.30;99.90
11320;DHT22;5715;48.234;14.320;2024-01-30T16:14:41;0.40;99.90
11320;DHT22;5715;48.234;14.320;2024-01-30T16:17:29;0.40;99.90
11320;DHT22;5715;48.234;14.320;2024-01-30T16:20:22;0.40;99.90
11320;DHT22;5715;48.234;14.320;2024-01-30T16:23:10;0.30;99.90
11320;DHT22;5715;48.234;14.320;2024-01-30T16:25:57;0.40;99.90
11320;DHT22;5715;48.234;14.320;2024-01-30T16:28:45;0.40;99.90
11320;DHT22;5715;48.234;14.320;2024-01-30T16:31:33;0.40;99.90
11320;DHT22;5715;48.234;14.320;2024-01-30T16:34:21;0.40;99.90
11320;DHT22;5715;48.234;14.320;2024-01-30T16:37:08;0.30;99.90
11320;DHT22;5715;48.234;14.320;2024-01-30T16:39:56;0.30;99.90
11320;DHT22;5715;48.234;14.320;2024-01-30T16:42:44;0.30;99.90
11320;DHT22;5715;48.234;14.320;2024-01-30T16:45:31;0.40;99.90
11320;DHT22;5715;48.234;14.320;2024-01-30T16:48:19;0.40;99.90
11320;DHT22;5715;48.234;14.320;2024-01-30T16:51:09;0.40;99.90
11320;DHT22;5715;48.234;14.320;2024-01-30T16:53:57;0.40;99.90
11320;DHT22;5715;48.234;14.320;2024-01-30T16:56:47;0.40;99.90
11320;DHT22;5715;48.234;14.320;2024-01-30T16:59:35;0.40;99.90
11320;DHT22;5715;48.234;14.320;2024-01-30T17:02:23;0.30;99.90
11320;DHT22;5715;48.234;14.320;2024-01-30T17:05:11;0.30;99.90
11320;DHT22;5715;48.234;14.320;2024-01-30T17:08:12;0.30;99.90
11320;DHT22;5715;48.234;14.320;2024-01-30T17:11:00;0.40;99.90
11320;DHT22;5715;48.234;14.320;2024-01-30T17:13:48;0.40;99.90
11320;DHT22;5715;48.234;14.320;2024-01-30T17:16:36;0.40;99.90
11320;DHT22;5715;48.234;14.320;2024-01-30T17:19:23;0.30;99.90
11320;DHT22;5715;48.234;14.320;2024-01-30T17:22:11;0.30;99.90
11320;DHT22;5715;48.234;14.320;2024-01-30T17:24:59;0.30;99.90
11320;DHT22;5715;48.234;14.320;2024-01-30T17:27:47;0.30;99.90
11320;DHT22;5715;48.234;14.320;2024-01-30T17:30:36;0.30;99.90
11320;DHT22;5715;48.234;14.320;2024-01-30T17:33:24;0.30;99.90
11320;DHT22;5715;48.234;14.320;2024-01-30T17:36:12;0.20;99.90
11320;DHT22;5715;48.234;14.320;2024-01-30T17:39:01;0.20;99.90
11320;DHT22;5715;48.234;14.320;2024-01-30T17:41:51;0.20;99.90
11320;DHT22;5715;48.234;14.320;2024-01-30T17:44:39;0.20;99.90
11320;DHT22;5715;48.234;14.320;2024-01-30T17:47:28;0.20;99.90
11320;DHT22;5715;48.234;14.320;2024-01-30T17:50:15;0.20;99.90
11320;DHT22;5715;48.234;14.320;2024-01-30T17:53:04;0.20;99.90
11320;DHT22;5715;48.234;14.320;2024-01-30T17:55:52;0.10;99.90
11320;DHT22;5715;48.234;14.320;2024-01-30T17:58:39;0.10;99.90